Reston, Virginia
Current Conditions -  °F | °C
As of 11:52 AM on Friday 24 Oct 2014 (Local Time) from KIAD Reporting Station
Broken Clouds Broken Clouds  
Wind Chill: 58°   Ceiling: 25000
Heat Index: 58°   Visibility: 10mi
Dew Point: 42°   Wind: 15mph
Humidity: 56%   Direction: 300°WNW
Pressure: 29.99"   Gusts: 22mph
Location:  38.96°N, 77.35°W
Report Text: KIAD 241552Z 30013G19KT 10SM FEW110 BKN250 14/06 A2999 RMK AO2 SLP156 T01440056
Loading
Personal Weather Stations






























Interactive Weather Map New forecast layout! Learn more

10-Day Weather Forecast

Advertisements
Track Severe Weather on mobile